Terminal Aerodrome Forecast
Issued by NWS Quad Cities IA IL

Home | Current Version | Previous Version | Text Only | Print | Product List | Glossary On
Versions: 1 2 3 4 5 6 7 8 9 10 11 12 13 14 15 16 17 18 19 20 21
000
FTUS43 KDVN 180104 AAA
TAFDBQ
TAF AMD
KDBQ 180104Z 1801/1824 VRB03KT 4SM -DZ BR OVC020
     FM180300 VRB02KT 3SM BR OVC010
     FM181000 26005KT 2SM BR OVC006
     FM181500 23007KT 5SM BR BKN015
     FM181800 22011KT P6SM SCT020 SCT250=

USA.gov is the U.S. government's official web portal to all federal, state and local government web resources and services.